Time;durP1;ratioP1;P1;durP2;ratioP2;P2;SDS_P1;SDS_P2;PMS_P1;PMS_P2;Temp;Humidity;BMP_temperature;BMP_pressure;BME280_temperature;BME280_humidity;BME280_pressure;Samples;Min_cycle;Max_cycle;Signal;HPM_P1;HPM_P2
2020/12/17 00:00:19;;;;;;;9.68;7.55;;;9.10;93.90;;;;;;5013956;28;20117;-87
2020/12/17 00:02:55;;;;;;;11.57;7.60;;;9.10;93.90;;;;;;5024173;28;20399;-88
2020/12/17 00:05:42;;;;;;;10.02;7.60;;;9.10;93.90;;;;;;4996863;28;20026;-88
2020/12/17 00:08:18;;;;;;;11.60;8.25;;;9.10;93.90;;;;;;4981656;28;20109;-88
2020/12/17 00:11:02;;;;;;;9.40;7.80;;;9.10;93.90;;;;;;4994213;28;20035;-87
2020/12/17 00:13:51;;;;;;;9.65;7.15;;;9.10;94.00;;;;;;4979171;28;20031;-87
2020/12/17 00:16:36;;;;;;;10.95;7.90;;;9.10;94.00;;;;;;4994231;28;20108;-88
2020/12/17 00:19:13;;;;;;;10.20;7.90;;;9.10;94.00;;;;;;4992880;28;20125;-90
2020/12/17 00:21:42;;;;;;;9.80;8.20;;;9.10;93.90;;;;;;5009017;28;20117;-87
2020/12/17 00:24:13;;;;;;;9.57;7.22;;;9.10;94.00;;;;;;4988152;28;20439;-88
2020/12/17 00:26:39;;;;;;;8.15;7.15;;;9.10;94.00;;;;;;5013680;28;20483;-86
2020/12/17 00:29:30;;;;;;;;;;;;;;;;;;;;;
2020/12/17 00:32:14;;;;;;;;;;;;;;;;;;;;;
2020/12/17 00:34:57;;;;;;;10.38;7.03;;;9.10;94.00;;;;;;5012759;28;20040;-86
2020/12/17 00:37:42;;;;;;;10.27;7.70;;;9.10;93.90;;;;;;4975659;28;20041;-88
2020/12/17 00:40:12;;;;;;;9.32;7.47;;;9.10;94.00;;;;;;5012350;28;20026;-89
2020/12/17 00:42:47;;;;;;;10.75;7.15;;;9.10;93.90;;;;;;4996128;28;20025;-90
2020/12/17 00:45:17;;;;;;;10.95;8.23;;;9.10;93.90;;;;;;4995227;28;20037;-87
2020/12/17 00:47:46;;;;;;;8.82;7.07;;;9.10;93.90;;;;;;4996541;28;20032;-88
2020/12/17 00:50:20;;;;;;;8.93;7.55;;;9.10;93.90;;;;;;4995977;28;20032;-87
2020/12/17 00:53:01;;;;;;;;;;;;;;;;;;;;;
2020/12/17 00:56:00;;;;;;;10.23;6.85;;;9.10;93.90;;;;;;5001627;28;20026;-88
2020/12/17 00:58:30;;;;;;;8.32;6.75;;;9.10;93.90;;;;;;4996363;28;20072;-88
2020/12/17 01:00:58;;;;;;;10.63;7.27;;;9.10;93.90;;;;;;4981918;28;20489;-87
2020/12/17 01:03:29;;;;;;;11.45;6.80;;;9.10;93.90;;;;;;4997018;28;20084;-90
2020/12/17 01:06:13;;;;;;;8.10;6.70;;;9.10;93.90;;;;;;5001839;28;20050;-87
2020/12/17 01:08:46;;;;;;;8.65;7.03;;;9.10;93.90;;;;;;5011594;28;20101;-88
2020/12/17 01:11:12;;;;;;;10.15;7.57;;;9.10;93.90;;;;;;4980143;28;20034;-87
2020/12/17 01:13:58;;;;;;;8.75;7.60;;;9.10;93.90;;;;;;4995992;28;20025;-87
2020/12/17 01:17:19;;;;;;;;;;;;;;;;;;;;;
2020/12/17 01:19:50;;;;;;;10.23;7.18;;;9.10;93.90;;;;;;4994876;28;20041;-88
2020/12/17 01:22:31;;;;;;;;;;;;;;;;;;;;;
2020/12/17 01:25:03;;;;;;;12.00;6.63;;;9.10;93.90;;;;;;4996852;28;20033;-88
2020/12/17 01:27:47;;;;;;;11.57;7.38;;;9.10;93.80;;;;;;4995334;28;20050;-90
2020/12/17 01:30:15;;;;;;;7.97;6.90;;;9.10;93.80;;;;;;4979690;28;20120;-87
2020/12/17 01:32:54;;;;;;;7.75;6.38;;;9.10;93.80;;;;;;4994960;28;20037;-87
2020/12/17 01:35:23;;;;;;;8.40;6.85;;;9.10;93.80;;;;;;4986901;28;20037;-87
2020/12/17 01:38:07;;;;;;;7.63;6.32;;;9.10;93.80;;;;;;4985926;28;20464;-87
2020/12/17 01:40:38;;;;;;;9.75;5.80;;;9.20;93.80;;;;;;5012330;28;20030;-88
2020/12/17 01:43:47;;;;;;;;;;;;;;;;;;;;;
2020/12/17 01:46:19;;;;;;;8.48;6.28;;;9.20;93.80;;;;;;5001454;28;20041;-88
2020/12/17 01:49:03;;;;;;;7.97;6.55;;;9.20;93.80;;;;;;4994600;28;20084;-88
2020/12/17 01:51:49;;;;;;;6.80;5.82;;;9.20;93.80;;;;;;4995508;28;20060;-87
2020/12/17 01:54:23;;;;;;;7.25;5.60;;;9.20;93.80;;;;;;4994363;28;20048;-86
2020/12/17 01:57:02;;;;;;;7.40;5.60;;;9.20;93.80;;;;;;4994884;28;20116;-88
2020/12/17 01:59:46;;;;;;;7.65;5.75;;;9.20;93.80;;;;;;4994888;28;20041;-87
2020/12/17 02:02:19;;;;;;;8.23;6.38;;;9.20;93.80;;;;;;4992070;28;20038;-87
2020/12/17 02:04:48;;;;;;;8.18;5.80;;;9.30;93.80;;;;;;4968528;28;20035;-90
2020/12/17 02:07:19;;;;;;;7.82;5.47;;;9.30;93.70;;;;;;4949494;28;20050;-88
2020/12/17 02:09:48;;;;;;;;;;;9.30;93.70;;;;;;4971624;28;20025;-87
2020/12/17 02:12:17;;;;;;;7.72;5.32;;;9.30;93.70;;;;;;4992794;28;19913;-87
2020/12/17 02:14:51;;;;;;;8.75;5.75;;;9.30;93.70;;;;;;4999872;28;20125;-87
2020/12/17 02:17:17;;;;;;;6.63;5.93;;;9.30;93.70;;;;;;4960844;28;20101;-87
2020/12/17 02:19:54;;;;;;;5.78;5.15;;;9.30;93.70;;;;;;4974784;28;20472;-89
2020/12/17 02:22:26;;;;;;;7.97;5.18;;;9.30;93.70;;;;;;4959387;28;20039;-87
2020/12/17 02:24:54;;;;;;;6.82;5.28;;;9.30;93.70;;;;;;4975068;28;20480;-88
2020/12/17 02:27:35;;;;;;;6.00;5.00;;;9.30;93.70;;;;;;4960546;28;20053;-87
2020/12/17 02:30:13;;;;;;;6.45;4.82;;;9.30;93.70;;;;;;4992904;28;20023;-88
2020/12/17 02:32:39;;;;;;;7.50;5.65;;;9.30;93.70;;;;;;4978339;28;20029;-89
2020/12/17 02:35:11;;;;;;;9.23;5.65;;;9.30;93.70;;;;;;4987408;28;20457;-88
2020/12/17 02:37:44;;;;;;;6.97;5.57;;;9.40;93.70;;;;;;4960068;28;20121;-87
2020/12/17 02:40:18;;;;;;;7.57;5.63;;;9.40;93.70;;;;;;4963701;28;20113;-87
2020/12/17 02:43:00;;;;;;;7.57;5.70;;;9.30;93.70;;;;;;4960034;28;20041;-88
2020/12/17 02:45:33;;;;;;;7.72;5.50;;;9.40;93.70;;;;;;4961263;28;20544;-88
2020/12/17 02:47:59;;;;;;;8.48;6.25;;;9.40;93.70;;;;;;4970629;28;20034;-89
2020/12/17 02:50:37;;;;;;;6.43;5.72;;;9.40;93.70;;;;;;4978779;28;20130;-87
2020/12/17 02:53:03;;;;;;;8.25;6.10;;;9.40;93.70;;;;;;4962651;28;20062;-87
2020/12/17 02:55:40;;;;;;;6.78;5.63;;;9.40;93.60;;;;;;4996211;28;20045;-87
2020/12/17 02:58:11;;;;;;;7.75;5.90;;;9.40;93.60;;;;;;4978263;28;20045;-87
2020/12/17 03:00:43;;;;;;;8.82;5.90;;;9.40;93.70;;;;;;4962988;28;20022;-87
2020/12/17 03:03:17;;;;;;;8.35;5.75;;;9.40;93.60;;;;;;4974609;28;20050;-87
2020/12/17 03:05:49;;;;;;;7.38;6.05;;;9.40;93.70;;;;;;4960705;28;20246;-87
2020/12/17 03:08:17;;;;;;;8.48;5.95;;;9.40;93.60;;;;;;4982819;28;20031;-85
2020/12/17 03:10:43;;;;;;;7.00;5.75;;;9.40;93.60;;;;;;4960198;28;20037;-88
2020/12/17 03:13:11;;;;;;;6.05;5.20;;;9.40;93.60;;;;;;4977073;28;20027;-86
2020/12/17 03:15:40;;;;;;;9.38;5.70;;;9.40;93.70;;;;;;4977739;28;20038;-87
2020/12/17 03:18:08;;;;;;;7.40;5.70;;;9.40;93.70;;;;;;4945583;28;20544;-87
2020/12/17 03:20:38;;;;;;;6.85;5.90;;;9.40;93.70;;;;;;4977711;28;20480;-87
2020/12/17 03:23:04;;;;;;;7.68;5.97;;;9.40;93.70;;;;;;4983961;28;20026;-87
2020/12/17 03:25:43;;;;;;;5.95;5.35;;;9.40;93.70;;;;;;4962981;28;20396;-87
2020/12/17 03:29:40;;;;;;;7.70;5.38;;;9.40;93.60;;;;;;4977540;28;20552;-90
2020/12/17 03:31:43;;;;;;;6.93;5.25;;;9.40;93.60;;;;;;4983650;28;20377;-88
2020/12/17 03:34:09;;;;;;;6.95;5.43;;;9.40;93.60;;;;;;4976845;28;20043;-87
2020/12/17 03:36:52;;;;;;;8.82;5.43;;;9.50;93.60;;;;;;4993752;28;20034;-88
2020/12/17 03:39:28;;;;;;;5.88;5.20;;;9.40;93.60;;;;;;4980655;28;20026;-89
2020/12/17 03:41:53;;;;;;;6.82;4.80;;;9.50;93.60;;;;;;4963321;28;20023;-88
2020/12/17 03:44:27;;;;;;;7.32;5.47;;;9.50;93.60;;;;;;4976084;28;20072;-88
2020/12/17 03:47:01;;;;;;;6.90;5.30;;;9.50;93.60;;;;;;4978168;28;20027;-89
2020/12/17 03:49:37;;;;;;;6.38;5.28;;;9.50;93.60;;;;;;4967691;28;20038;-88
2020/12/17 03:52:07;;;;;;;7.53;5.45;;;9.50;93.60;;;;;;4957454;28;20030;-87
2020/12/17 03:54:44;;;;;;;6.53;5.35;;;9.50;93.60;;;;;;4974534;28;20380;-88
2020/12/17 03:57:14;;;;;;;6.45;5.20;;;9.50;93.60;;;;;;4977024;28;20030;-87
2020/12/17 03:59:42;;;;;;;7.53;5.55;;;9.50;93.60;;;;;;4970264;28;20022;-88
2020/12/17 04:02:17;;;;;;;6.82;5.32;;;9.50;93.60;;;;;;4994783;28;20018;-87
2020/12/17 04:04:46;;;;;;;6.22;4.95;;;9.50;93.60;;;;;;4977456;28;20480;-87
2020/12/17 04:07:27;;;;;;;7.80;5.60;;;9.50;93.60;;;;;;4979328;28;20130;-89
2020/12/17 04:10:11;;;;;;;9.32;6.82;;;9.50;93.60;;;;;;4977430;28;20055;-87
2020/12/17 04:12:45;;;;;;;7.38;6.18;;;9.50;93.60;;;;;;4964116;28;20136;-87
2020/12/17 04:15:13;;;;;;;6.78;5.80;;;9.50;93.60;;;;;;4974167;28;20077;-87
2020/12/17 04:17:52;;;;;;;;;;;;;;;;;;;;;
2020/12/17 04:20:24;;;;;;;6.78;5.13;;;9.50;93.60;;;;;;5004490;28;20034;-86
2020/12/17 04:22:51;;;;;;;;;;;9.50;93.60;;;;;;4977463;28;20026;-87
2020/12/17 04:25:21;;;;;;;8.95;5.68;;;9.50;93.60;;;;;;4977504;28;19913;-87
2020/12/17 04:27:51;;;;;;;7.75;6.07;;;9.50;93.60;;;;;;4976054;28;20129;-88
2020/12/17 04:30:19;;;;;;;7.18;5.55;;;9.50;93.60;;;;;;4951997;28;20030;-87
2020/12/17 04:32:45;;;;;;;8.57;6.22;;;9.50;93.60;;;;;;4976672;28;20025;-87
2020/12/17 04:35:23;;;;;;;8.05;6.35;;;9.50;93.60;;;;;;4975200;28;20058;-86
2020/12/17 04:37:53;;;;;;;7.35;5.80;;;9.50;93.60;;;;;;4976559;28;20551;-87
2020/12/17 04:40:21;;;;;;;6.90;5.43;;;9.50;93.60;;;;;;4994174;28;20035;-88
2020/12/17 04:42:52;;;;;;;8.68;5.97;;;9.50;93.60;;;;;;4959920;28;20053;-88
2020/12/17 04:45:23;;;;;;;6.50;5.43;;;9.50;93.70;;;;;;4957322;28;20097;-87
2020/12/17 04:47:51;;;;;;;6.22;4.97;;;9.50;93.70;;;;;;4976291;28;20036;-89
2020/12/17 04:50:25;;;;;;;5.90;5.15;;;9.50;93.70;;;;;;4976786;28;20028;-88
2020/12/17 04:53:16;;;;;;;6.93;5.22;;;9.50;93.70;;;;;;4976716;28;20023;-88
2020/12/17 04:55:52;;;;;;;6.78;5.53;;;9.60;93.80;;;;;;4976444;28;20472;-87
2020/12/17 04:58:26;;;;;;;7.53;5.30;;;9.50;93.80;;;;;;4992566;28;20053;-88
2020/12/17 05:01:03;;;;;;;6.68;5.72;;;9.60;93.80;;;;;;4976664;28;20543;-88
2020/12/17 05:03:33;;;;;;;9.27;5.57;;;9.50;93.80;;;;;;4962853;28;20042;-89
2020/12/17 05:08:56;;;;;;;7.68;5.57;;;9.50;93.80;;;;;;4964309;28;20063;-87
2020/12/17 05:11:25;;;;;;;8.80;5.70;;;9.50;93.80;;;;;;4990125;28;20038;-87
2020/12/17 05:13:56;;;;;;;6.28;5.63;;;9.50;93.80;;;;;;4976860;28;20023;-87
2020/12/17 05:16:24;;;;;;;7.25;5.88;;;9.50;93.90;;;;;;4969470;28;20042;-88
2020/12/17 05:19:06;;;;;;;7.90;5.47;;;9.50;93.90;;;;;;4973541;28;20069;-87
2020/12/17 05:21:37;;;;;;;7.95;5.30;;;9.60;93.90;;;;;;4971585;28;20117;-87
2020/12/17 05:24:12;;;;;;;8.98;6.07;;;9.60;93.90;;;;;;4959065;28;20019;-86
2020/12/17 05:26:43;;;;;;;6.97;5.70;;;9.60;94.00;;;;;;4956167;28;20058;-88
2020/12/17 05:29:18;;;;;;;8.00;5.65;;;9.60;93.90;;;;;;4991378;28;20030;-87
2020/12/17 05:31:47;;;;;;;7.90;6.38;;;9.60;94.00;;;;;;4969087;28;20030;-87
2020/12/17 05:34:13;;;;;;;8.38;6.22;;;9.60;94.10;;;;;;4974629;28;20041;-86
2020/12/17 05:36:48;;;;;;;6.43;5.60;;;9.60;94.00;;;;;;4957668;28;20846;-86
2020/12/17 05:39:25;;;;;;;7.40;5.50;;;9.60;94.10;;;;;;4966238;28;20102;-86
2020/12/17 05:41:57;;;;;;;5.90;5.30;;;9.60;94.00;;;;;;4973160;28;20023;-87
2020/12/17 05:44:40;;;;;;;7.45;5.88;;;9.60;94.10;;;;;;4966506;28;20498;-87
2020/12/17 05:47:11;;;;;;;5.75;5.13;;;9.70;94.10;;;;;;4977040;28;20026;-89
2020/12/17 05:49:52;;;;;;;;;;;9.60;94.10;;;;;;4969127;28;20527;-87
2020/12/17 05:52:25;;;;;;;7.25;5.57;;;9.60;94.10;;;;;;4970715;28;20422;-88
2020/12/17 05:54:56;;;;;;;5.97;5.38;;;9.60;94.10;;;;;;4987531;28;20050;-87
2020/12/17 05:57:22;;;;;;;6.28;5.50;;;9.60;94.10;;;;;;4971527;28;20559;-87
2020/12/17 05:59:59;;;;;;;6.38;5.75;;;9.60;94.10;;;;;;4974972;28;20027;-87
2020/12/17 06:02:30;;;;;;;8.68;6.30;;;9.60;94.20;;;;;;4975949;28;20162;-86
2020/12/17 06:05:29;;;;;;;6.90;5.47;;;9.60;94.20;;;;;;4995445;28;20029;-88
2020/12/17 06:08:00;;;;;;;7.47;6.22;;;9.60;94.20;;;;;;4997887;28;20113;-87
2020/12/17 06:10:34;;;;;;;6.30;5.70;;;9.70;94.20;;;;;;4999488;28;20426;-88
2020/12/17 06:13:10;;;;;;;6.30;5.25;;;9.70;94.20;;;;;;4975503;28;20022;-88
2020/12/17 06:16:12;;;;;;;7.63;6.15;;;9.70;94.20;;;;;;4995171;28;20166;-87
2020/12/17 06:19:09;;;;;;;7.43;6.47;;;9.70;94.20;;;;;;4980112;28;20038;-87
2020/12/17 06:21:59;;;;;;;7.63;6.30;;;9.60;94.20;;;;;;4998270;28;20041;-87
2020/12/17 06:24:30;;;;;;;6.70;6.00;;;9.60;94.20;;;;;;4980333;28;20105;-87
2020/12/17 06:27:07;;;;;;;7.43;6.38;;;9.60;94.20;;;;;;4963581;28;20066;-90
2020/12/17 06:29:56;;;;;;;9.05;7.18;;;9.70;94.20;;;;;;4991251;28;20562;-87
2020/12/17 06:32:28;;;;;;;8.73;7.75;;;9.70;94.30;;;;;;4998429;28;20029;-87
2020/12/17 06:34:59;;;;;;;9.45;8.30;;;9.70;94.30;;;;;;4998558;28;20052;-87
2020/12/17 06:37:46;;;;;;;8.93;8.02;;;9.60;94.20;;;;;;4999313;28;20040;-88
2020/12/17 06:40:31;;;;;;;9.73;7.97;;;9.70;94.30;;;;;;5017336;28;20113;-88
2020/12/17 06:43:31;;;;;;;8.82;7.43;;;9.60;94.30;;;;;;5003769;28;20104;-87
2020/12/17 06:46:03;;;;;;;9.20;7.95;;;9.60;94.30;;;;;;5012845;28;20026;-87
2020/12/17 06:48:33;;;;;;;9.13;8.20;;;9.60;94.30;;;;;;4998070;28;20032;-88
2020/12/17 06:51:55;;;;;;;9.05;7.88;;;9.60;94.30;;;;;;4999070;28;20034;-87
2020/12/17 06:54:23;;;;;;;9.27;8.38;;;9.60;94.30;;;;;;5008179;28;20468;-85
2020/12/17 06:57:24;;;;;;;9.68;8.38;;;9.60;94.20;;;;;;5007480;28;20476;-87
2020/12/17 07:00:12;;;;;;;10.00;8.98;;;9.60;94.20;;;;;;4997795;28;20121;-88
2020/12/17 07:02:45;;;;;;;11.95;9.75;;;9.60;94.20;;;;;;4994220;28;20057;-86
2020/12/17 07:05:35;;;;;;;11.88;10.02;;;9.60;94.20;;;;;;4987880;28;20061;-87
2020/12/17 07:08:08;;;;;;;11.15;10.05;;;9.60;94.20;;;;;;4998307;28;20030;-87
2020/12/17 07:10:48;;;;;;;10.90;9.82;;;9.60;94.30;;;;;;4981563;28;20040;-87
2020/12/17 07:13:41;;;;;;;11.68;10.48;;;9.60;94.30;;;;;;4980808;28;20033;-87
2020/12/17 07:16:30;;;;;;;11.35;10.15;;;9.60;94.30;;;;;;5025115;28;20041;-87
2020/12/17 07:19:17;;;;;;;11.45;9.82;;;9.50;94.20;;;;;;4997569;28;20399;-88
2020/12/17 07:21:43;;;;;;;12.35;11.15;;;9.50;94.30;;;;;;4998010;28;20037;-87
2020/12/17 07:24:22;;;;;;;12.18;10.98;;;9.50;94.30;;;;;;4997675;28;20018;-88
2020/12/17 07:26:54;;;;;;;12.27;11.07;;;9.50;94.30;;;;;;4998071;28;20595;-88
2020/12/17 07:29:40;;;;;;;12.77;11.50;;;9.60;94.30;;;;;;4991308;28;20168;-87
2020/12/17 07:32:21;;;;;;;12.98;11.57;;;9.60;94.30;;;;;;4997784;28;20040;-87
2020/12/17 07:35:26;;;;;;;;;;;;;;;;;;;;;
2020/12/17 07:38:02;;;;;;;12.80;11.50;;;9.50;94.30;;;;;;5001338;28;20049;-87
2020/12/17 07:40:46;;;;;;;13.55;12.15;;;9.50;94.30;;;;;;4983682;28;20023;-88
2020/12/17 07:43:14;;;;;;;13.38;11.98;;;9.50;94.30;;;;;;4979605;28;20408;-87
2020/12/17 07:45:45;;;;;;;13.77;12.40;;;9.50;94.30;;;;;;4988574;28;20029;-87
2020/12/17 07:48:55;;;;;;;13.70;12.30;;;9.50;94.30;;;;;;4997155;28;20085;-88
2020/12/17 07:51:34;;;;;;;12.80;11.50;;;9.60;94.30;;;;;;4908260;29;20031;-87
2020/12/17 07:54:31;;;;;;;;;;;;;;;;;;;;;
2020/12/17 07:57:03;;;;;;;16.30;13.63;;;9.50;94.30;;;;;;5014418;28;20486;-87
2020/12/17 07:59:32;;;;;;;15.65;14.02;;;9.50;94.30;;;;;;4996641;28;20487;-88
2020/12/17 08:02:03;;;;;;;20.65;18.45;;;9.50;94.30;;;;;;4996428;28;20113;-88
2020/12/17 08:04:29;;;;;;;18.73;16.67;;;9.50;94.30;;;;;;4996954;28;20073;-87
2020/12/17 08:14:27;;;;;;;16.77;14.32;;;9.50;94.30;;;;;;4838810;29;20084;-86
2020/12/17 08:32:45;;;;;;;14.82;12.70;;;9.40;94.20;;;;;;4802202;29;20035;-87
2020/12/17 08:36:24;;;;;;;;;;;;;;;;;;;;;
2020/12/17 09:08:03;;;;;;;12.10;10.60;;;9.50;94.20;;;;;;4845917;29;19919;-85
2020/12/17 09:27:36;;;;;;;10.57;8.82;;;9.50;94.20;;;;;;4908276;29;20032;-86
2020/12/17 09:30:16;;;;;;;11.13;9.75;;;9.50;94.20;;;;;;4939086;28;20093;-85
2020/12/17 09:33:09;;;;;;;9.77;8.50;;;9.60;94.20;;;;;;4959694;28;20034;-85
2020/12/17 09:35:39;;;;;;;9.05;7.93;;;9.50;94.20;;;;;;4958113;28;20046;-87
2020/12/17 09:38:07;;;;;;;10.48;7.78;;;9.60;94.20;;;;;;4985527;28;20491;-85
2020/12/17 09:40:44;;;;;;;9.90;7.40;;;9.60;94.30;;;;;;4981124;28;20035;-85
2020/12/17 09:43:20;;;;;;;9.98;7.10;;;9.60;94.20;;;;;;4975246;28;20544;-85
2020/12/17 09:45:58;;;;;;;8.73;7.35;;;9.60;94.10;;;;;;4980375;28;20365;-85
2020/12/17 09:48:33;;;;;;;9.15;7.38;;;9.60;94.10;;;;;;4959473;28;20045;-86
2020/12/17 09:51:09;;;;;;;9.93;7.15;;;9.60;94.10;;;;;;4985347;28;20019;-85
2020/12/17 09:53:43;;;;;;;9.65;6.85;;;9.60;94.10;;;;;;4972896;28;20050;-85
2020/12/17 09:56:16;;;;;;;9.57;7.38;;;9.60;94.10;;;;;;4973215;28;20030;-85
2020/12/17 09:58:51;;;;;;;12.32;6.88;;;9.70;94.00;;;;;;4972256;28;20022;-86
2020/12/17 10:01:22;;;;;;;10.95;7.13;;;9.70;94.00;;;;;;4957282;28;20034;-86
2020/12/17 10:03:59;;;;;;;8.07;7.22;;;9.70;94.00;;;;;;4982947;28;20679;-86
2020/12/17 10:09:32;;;;;;;7.45;6.28;;;9.70;94.00;;;;;;4972429;28;20121;-86
2020/12/17 10:12:08;;;;;;;9.13;6.65;;;9.70;93.90;;;;;;4970409;28;20034;-85
2020/12/17 10:14:43;;;;;;;8.45;6.00;;;9.70;93.90;;;;;;4988088;28;20120;-85
2020/12/17 10:17:19;;;;;;;10.30;6.28;;;9.80;93.90;;;;;;4994275;28;20530;-85
2020/12/17 10:19:51;;;;;;;8.85;6.00;;;9.80;93.90;;;;;;4965578;28;20112;-86
2020/12/17 10:22:42;;;;;;;6.32;5.50;;;9.80;93.80;;;;;;4981871;28;20023;-85
2020/12/17 10:25:25;;;;;;;8.30;5.53;;;9.80;93.80;;;;;;4981424;28;20503;-86
2020/12/17 10:27:59;;;;;;;9.57;6.20;;;9.80;93.70;;;;;;4958982;28;20022;-85
2020/12/17 10:30:37;;;;;;;9.82;6.00;;;9.80;93.60;;;;;;4975011;28;20032;-85
2020/12/17 10:33:10;;;;;;;7.43;5.15;;;9.80;93.60;;;;;;4980980;28;20041;-86
2020/12/17 10:36:03;;;;;;;9.65;5.50;;;9.80;93.60;;;;;;4987063;28;20034;-88
2020/12/17 10:38:31;;;;;;;8.43;5.28;;;9.80;93.50;;;;;;4959956;28;20034;-85
2020/12/17 10:41:03;;;;;;;9.73;5.30;;;9.80;93.40;;;;;;4983426;28;20030;-86
2020/12/17 10:43:31;;;;;;;7.68;5.28;;;9.80;93.40;;;;;;4985358;28;20026;-87
2020/12/17 10:45:57;;;;;;;7.00;5.45;;;9.80;93.40;;;;;;5002977;28;20476;-86
2020/12/17 10:48:47;;;;;;;;;;;;;;;;;;;;;
2020/12/17 10:51:36;;;;;;;7.07;5.05;;;9.90;93.30;;;;;;4950459;28;20025;-85
2020/12/17 10:54:24;;;;;;;8.13;5.47;;;9.90;93.30;;;;;;4968852;28;20240;-86
2020/12/17 10:59:44;;;;;;;7.63;5.35;;;9.90;93.30;;;;;;5002341;28;20037;-85
2020/12/17 11:02:17;;;;;;;8.00;5.78;;;10.00;93.30;;;;;;4989510;28;20018;-83
2020/12/17 11:04:49;;;;;;;9.02;5.15;;;10.00;93.20;;;;;;5006148;28;20053;-86
2020/12/17 11:07:41;;;;;;;;;;;;;;;;;;;;;
2020/12/17 11:10:16;;;;;;;10.50;5.70;;;10.00;93.10;;;;;;4995153;28;20037;-88
2020/12/17 11:12:54;;;;;;;7.30;4.95;;;10.00;93.00;;;;;;4989380;28;20037;-86
2020/12/17 11:15:33;;;;;;;10.80;5.65;;;10.10;93.00;;;;;;4975446;28;20480;-88
2020/12/17 11:18:14;;;;;;;;;;;;;;;;;;;;;
2020/12/17 11:21:28;;;;;;;;;;;;;;;;;;;;;
2020/12/17 11:24:27;;;;;;;;;;;;;;;;;;;;;
2020/12/17 11:27:50;;;;;;;8.93;6.28;;;10.10;92.90;;;;;;4960751;28;20047;-87
2020/12/17 11:37:15;;;;;;;;;;;;;;;;;;;;;
2020/12/17 11:43:23;;;;;;;;;;;10.30;92.70;;;;;;4926696;28;20043;-87
2020/12/17 11:52:39;;;;;;;7.00;5.78;;;10.30;92.50;;;;;;4945858;29;20627;-86
2020/12/17 11:55:43;;;;;;;8.55;5.38;;;10.20;92.40;;;;;;4985921;28;20042;-88
2020/12/17 12:03:02;;;;;;;11.10;5.63;;;10.30;92.40;;;;;;4934033;28;20080;-86
2020/12/17 12:05:25;;;;;;;8.05;5.20;;;10.20;92.40;;;;;;4946982;28;20038;-86
2020/12/17 12:09:03;;;;;;;7.80;4.90;;;10.20;92.40;;;;;;4968749;28;20026;-88
2020/12/17 12:12:00;;;;;;;9.55;4.63;;;10.20;92.40;;;;;;4934092;29;20035;-88
2020/12/17 12:18:40;;;;;;;;;;;;;;;;;;;;;
2020/12/17 12:25:13;;;;;;;10.77;5.25;;;10.40;92.50;;;;;;4937098;29;20038;-88
2020/12/17 12:31:13;;;;;;;;;;;;;;;;;;;;;
2020/12/17 12:34:03;;;;;;;;;;;;;;;;;;;;;
2020/12/17 12:40:32;;;;;;;6.13;4.13;;;10.40;92.30;;;;;;4909543;29;20040;-87
2020/12/17 12:43:22;;;;;;;10.10;4.32;;;10.40;92.20;;;;;;4970306;28;20039;-87
2020/12/17 12:46:18;;;;;;;;;;;;;;;;;;;;;
2020/12/17 12:48:52;;;;;;;10.25;3.97;;;10.40;92.10;;;;;;4992847;28;20034;-87
2020/12/17 12:51:56;;;;;;;;;;;;;;;;;;;;;
2020/12/17 12:57:42;;;;;;;;;;;;;;;;;;;;;
2020/12/17 13:00:28;;;;;;;15.40;5.35;;;10.30;92.20;;;;;;4990442;28;20030;-87
2020/12/17 13:06:22;;;;;;;;;;;;;;;;;;;;;
2020/12/17 13:08:50;;;;;;;9.30;4.20;;;10.40;91.80;;;;;;5013569;28;20018;-85
2020/12/17 13:11:33;;;;;;;6.78;3.72;;;10.40;91.80;;;;;;4995992;28;20353;-84
2020/12/17 13:14:13;;;;;;;5.00;3.22;;;10.40;91.80;;;;;;5011967;28;20029;-84
2020/12/17 13:16:51;;;;;;;6.90;3.75;;;10.40;91.80;;;;;;5016655;28;20040;-84
2020/12/17 13:22:44;;;;;;;7.70;4.13;;;10.40;91.80;;;;;;5005072;28;20036;-84
2020/12/17 13:25:42;;;;;;;;;;;;;;;;;;;;;
2020/12/17 13:28:49;;;;;;;7.55;3.38;;;10.30;91.70;;;;;;4984014;28;20038;-87
2020/12/17 13:31:26;;;;;;;10.32;2.88;;;10.40;91.60;;;;;;5011508;28;20030;-86
2020/12/17 13:34:18;;;;;;;9.57;3.15;;;10.30;91.60;;;;;;4996107;28;20045;-87
2020/12/17 13:37:37;;;;;;;;;;;;;;;;;;;;;
2020/12/17 13:40:39;;;;;;;5.80;3.03;;;10.40;91.30;;;;;;5021346;28;20034;-86
2020/12/17 13:43:25;;;;;;;6.85;3.00;;;10.40;91.30;;;;;;4981532;28;20109;-84
2020/12/17 13:46:21;;;;;;;;;;;;;;;;;;;;;
2020/12/17 13:49:20;;;;;;;;;;;;;;;;;;;;;
2020/12/17 13:51:56;;;;;;;;;;;;;;;;;;;;;
2020/12/17 13:55:01;;;;;;;;;;;;;;;;;;;;;
2020/12/17 14:04:19;;;;;;;;;;;;;;;;;;;;;
2020/12/17 14:10:19;;;;;;;;;;;;;;;;;;;;;
2020/12/17 14:13:45;;;;;;;6.28;2.92;;;10.20;91.50;;;;;;4931491;29;20044;-89
2020/12/17 14:16:53;;;;;;;7.63;2.92;;;10.20;91.60;;;;;;4877504;29;20625;-87
2020/12/17 14:19:51;;;;;;;5.78;2.80;;;10.30;91.60;;;;;;4885974;29;20040;-87
2020/12/17 14:37:00;;;;;;;;;;;;;;;;;;;;;
2020/12/17 14:51:09;;;;;;;;;;;;;;;;;;;;;
2020/12/17 14:54:10;;;;;;;;;;;;;;;;;;;;;
2020/12/17 14:56:39;;;;;;;6.28;3.22;;;10.20;91.30;;;;;;4907029;29;20037;-89
2020/12/17 14:59:26;;;;;;;8.23;2.60;;;10.10;91.20;;;;;;4941073;29;20058;-84
2020/12/17 15:01:57;;;;;;;4.63;2.40;;;10.10;91.20;;;;;;4925658;29;20175;-87
2020/12/17 15:05:01;;;;;;;4.68;2.13;;;10.10;91.10;;;;;;4945906;29;20063;-85
2020/12/17 15:07:32;;;;;;;8.68;2.28;;;10.10;91.20;;;;;;4964758;28;20133;-87
2020/12/17 15:10:33;;;;;;;8.50;2.63;;;10.10;91.10;;;;;;4984643;28;20030;-88
2020/12/17 15:19:24;;;;;;;7.03;2.53;;;10.10;91.10;;;;;;5010934;28;20046;-85
2020/12/17 15:22:00;;;;;;;4.18;2.03;;;10.10;91.10;;;;;;5008921;28;20034;-86
2020/12/17 15:24:40;;;;;;;3.90;1.80;;;10.10;91.00;;;;;;4975742;28;20083;-89
2020/12/17 15:27:10;;;;;;;4.90;2.03;;;10.10;91.00;;;;;;4979957;28;20030;-86
2020/12/17 15:29:51;;;;;;;6.20;2.33;;;10.10;91.00;;;;;;5012599;28;20537;-86
2020/12/17 15:35:33;;;;;;;5.70;2.45;;;10.10;90.90;;;;;;4998847;28;20033;-86
2020/12/17 15:38:22;;;;;;;;;;;;;;;;;;;;;
2020/12/17 15:41:01;;;;;;;;;;;;;;;;;;;;;
2020/12/17 15:43:31;;;;;;;5.97;2.15;;;10.10;90.90;;;;;;4990534;28;20472;-85
2020/12/17 15:46:10;;;;;;;6.63;2.28;;;10.00;90.90;;;;;;4970651;28;20026;-86
2020/12/17 15:49:09;;;;;;;4.10;2.00;;;10.00;90.90;;;;;;5004362;28;20026;-86
2020/12/17 15:52:12;;;;;;;6.82;2.60;;;10.00;90.90;;;;;;4990136;28;20048;-87
2020/12/17 15:54:41;;;;;;;4.82;2.33;;;10.00;90.80;;;;;;4970059;28;20044;-86
2020/12/17 15:57:07;;;;;;;7.22;2.20;;;10.00;90.70;;;;;;4995521;28;20543;-86
2020/12/17 15:59:45;;;;;;;7.50;2.40;;;9.90;90.80;;;;;;4995307;28;20168;-88
2020/12/17 16:02:11;;;;;;;6.20;2.20;;;9.90;90.80;;;;;;5000466;28;20037;-87
2020/12/17 16:04:54;;;;;;;;;;;;;;;;;;;;;
2020/12/17 16:07:30;;;;;;;;;;;;;;;;;;;;;
2020/12/17 16:09:57;;;;;;;8.35;2.30;;;9.90;90.70;;;;;;5001966;28;20025;-87
2020/12/17 16:12:34;;;;;;;4.65;2.10;;;9.90;90.70;;;;;;4987172;28;20561;-90
2020/12/17 16:15:21;;;;;;;5.75;2.10;;;9.90;90.70;;;;;;4979829;28;20454;-87
2020/12/17 16:17:55;;;;;;;5.15;1.95;;;9.80;90.70;;;;;;4987456;28;20026;-86
2020/12/17 16:20:41;;;;;;;6.03;2.33;;;9.80;90.80;;;;;;4991631;28;20034;-87
2020/12/17 16:23:08;;;;;;;3.47;1.92;;;9.80;90.70;;;;;;4987854;28;20138;-86
2020/12/17 16:25:56;;;;;;;6.13;2.20;;;9.80;90.80;;;;;;4983963;28;20031;-88
2020/12/17 16:28:25;;;;;;;6.13;2.78;;;9.80;90.80;;;;;;4988930;28;20036;-86
2020/12/17 16:30:54;;;;;;;6.82;2.78;;;9.80;90.80;;;;;;4972044;28;20065;-87
2020/12/17 16:33:26;;;;;;;6.47;2.50;;;9.80;90.80;;;;;;4996172;28;20018;-87
2020/12/17 16:36:00;;;;;;;6.05;2.50;;;9.70;90.80;;;;;;4985887;28;20121;-85
2020/12/17 16:38:33;;;;;;;5.53;2.35;;;9.70;90.80;;;;;;4987512;28;20073;-85
2020/12/17 16:40:59;;;;;;;7.40;2.38;;;9.70;90.80;;;;;;4991826;28;20019;-86
2020/12/17 16:43:27;;;;;;;6.60;2.40;;;9.70;90.80;;;;;;5008053;28;20185;-85
2020/12/17 16:45:53;;;;;;;3.70;2.10;;;9.70;90.90;;;;;;4991685;28;20034;-87
2020/12/17 16:48:18;;;;;;;5.75;2.40;;;9.70;90.90;;;;;;4991884;28;20044;-85
2020/12/17 16:50:54;;;;;;;3.90;2.10;;;9.70;90.90;;;;;;4999499;28;20021;-86
2020/12/17 16:53:20;;;;;;;6.43;2.40;;;9.60;90.90;;;;;;4990392;28;20023;-85
2020/12/17 16:55:51;;;;;;;4.05;2.60;;;9.60;90.90;;;;;;4981395;28;20036;-86
2020/12/17 16:58:22;;;;;;;;;;;9.60;90.90;;;;;;5016848;28;20038;-87
2020/12/17 17:00:50;;;;;;;6.53;2.30;;;9.60;90.90;;;;;;4990414;28;19913;-87
2020/12/17 17:03:18;;;;;;;4.78;2.33;;;9.60;90.90;;;;;;5004915;28;20026;-87
2020/12/17 17:05:44;;;;;;;9.48;3.15;;;9.50;90.90;;;;;;4987167;28;20093;-86
2020/12/17 17:08:12;;;;;;;6.90;2.15;;;9.50;90.90;;;;;;4986953;28;20511;-87
2020/12/17 17:10:48;;;;;;;;;;;;;;;;;;;;;
2020/12/17 17:13:14;;;;;;;6.35;2.60;;;9.50;91.00;;;;;;5006484;28;20057;-86
2020/12/17 17:15:44;;;;;;;7.00;2.85;;;9.50;91.00;;;;;;5014182;28;20538;-87
2020/12/17 17:21:03;;;;;;;7.82;3.13;;;9.40;91.00;;;;;;4982898;28;20491;-86
2020/12/17 17:23:30;;;;;;;6.03;2.50;;;9.40;91.10;;;;;;4983781;28;20057;-85
2020/12/17 17:25:56;;;;;;;7.03;2.70;;;9.30;91.10;;;;;;5007999;28;20434;-86
2020/12/17 17:28:24;;;;;;;7.97;3.28;;;9.30;91.10;;;;;;4983372;28;20019;-85
2020/12/17 17:31:12;;;;;;;5.93;2.80;;;9.30;91.10;;;;;;4986926;28;20542;-86